Time;durP1;ratioP1;P1;durP2;ratioP2;P2;SDS_P1;SDS_P2;PMS_P1;PMS_P2;Temp;Humidity;BMP_temperature;BMP_pressure;BME280_temperature;BME280_humidity;BME280_pressure;Samples;Min_cycle;Max_cycle;Signal;HPM_P1;HPM_P2
2024/01/23 00:01:11;;;;;;;22.85;4.70;;;6.80;99.90;;;;;;5033242;28;20041;-67
2024/01/23 00:03:38;;;;;;;22.80;4.28;;;6.80;99.90;;;;;;5033491;28;20071;-67
2024/01/23 00:06:04;;;;;;;27.33;4.53;;;6.70;99.90;;;;;;5022353;28;20041;-67
2024/01/23 00:08:30;;;;;;;18.20;4.00;;;6.70;99.90;;;;;;5062278;28;20064;-67
2024/01/23 00:10:56;;;;;;;26.50;4.93;;;6.60;99.90;;;;;;5032347;28;20037;-67
2024/01/23 00:13:22;;;;;;;20.40;4.20;;;6.60;99.90;;;;;;5034283;28;20045;-67
2024/01/23 00:15:48;;;;;;;18.85;3.75;;;6.60;99.90;;;;;;5031344;28;20094;-67
2024/01/23 00:18:14;;;;;;;19.30;4.38;;;6.60;99.90;;;;;;5034244;28;20052;-67
2024/01/23 00:20:40;;;;;;;24.15;4.63;;;6.60;99.90;;;;;;5032188;28;20037;-69
2024/01/23 00:23:06;;;;;;;24.75;4.35;;;6.50;99.90;;;;;;5032369;28;20060;-67
2024/01/23 00:25:31;;;;;;;21.00;4.38;;;6.50;99.90;;;;;;5032711;28;20042;-67
2024/01/23 00:27:57;;;;;;;23.25;4.47;;;6.50;99.90;;;;;;5030758;28;20041;-67
2024/01/23 00:30:23;;;;;;;21.90;4.43;;;6.40;99.90;;;;;;5033989;28;20091;-67
2024/01/23 00:32:49;;;;;;;20.52;5.10;;;6.40;99.90;;;;;;5032027;28;20068;-67
2024/01/23 00:35:15;;;;;;;25.77;4.72;;;6.40;99.90;;;;;;5033045;28;20135;-67
2024/01/23 00:37:40;;;;;;;20.65;4.15;;;6.40;99.90;;;;;;5021812;28;20052;-69
2024/01/23 00:40:07;;;;;;;23.80;4.85;;;6.40;99.90;;;;;;5065576;28;20029;-67
2024/01/23 00:42:33;;;;;;;17.17;3.80;;;6.40;99.90;;;;;;5031984;28;20434;-67
2024/01/23 00:44:59;;;;;;;22.25;4.40;;;6.40;99.90;;;;;;5032860;28;20045;-67
2024/01/23 00:47:25;;;;;;;19.23;3.60;;;6.40;99.90;;;;;;5029577;28;20107;-69
2024/01/23 00:49:51;;;;;;;23.73;4.88;;;6.40;99.90;;;;;;5064624;28;20080;-67
2024/01/23 00:52:16;;;;;;;19.45;4.55;;;6.50;99.90;;;;;;5048386;28;20045;-67
2024/01/23 00:54:42;;;;;;;19.33;4.47;;;6.50;99.90;;;;;;5033489;28;20444;-69
2024/01/23 00:57:08;;;;;;;19.98;4.30;;;6.40;99.90;;;;;;5033245;28;20038;-67
2024/01/23 00:59:33;;;;;;;21.20;3.88;;;6.40;99.90;;;;;;5028957;28;20132;-67
2024/01/23 01:01:59;;;;;;;23.30;4.45;;;6.40;99.90;;;;;;5030646;28;20041;-67
2024/01/23 01:04:25;;;;;;;21.17;4.97;;;6.40;99.90;;;;;;5032603;28;20044;-67
2024/01/23 01:06:50;;;;;;;22.58;4.00;;;6.40;99.90;;;;;;5031633;28;20132;-67
2024/01/23 01:09:16;;;;;;;21.30;5.03;;;6.50;99.90;;;;;;5030224;28;20113;-67
2024/01/23 01:11:42;;;;;;;17.63;4.32;;;6.40;99.90;;;;;;5024868;28;20034;-67
2024/01/23 01:14:08;;;;;;;22.38;4.22;;;6.40;99.90;;;;;;5029960;28;20128;-68
2024/01/23 01:16:34;;;;;;;23.38;4.20;;;6.40;99.90;;;;;;5027058;28;20530;-67
2024/01/23 01:19:00;;;;;;;20.83;5.05;;;6.40;99.90;;;;;;5021289;28;20133;-67
2024/01/23 01:21:25;;;;;;;21.38;3.92;;;6.40;99.90;;;;;;5021944;28;20490;-67
2024/01/23 01:23:51;;;;;;;21.33;4.38;;;6.40;99.90;;;;;;5031016;28;20049;-67
2024/01/23 01:26:17;;;;;;;21.58;4.65;;;6.30;99.90;;;;;;5032276;28;20041;-67
2024/01/23 01:28:43;;;;;;;20.83;3.45;;;6.30;99.90;;;;;;5031594;28;20043;-67
2024/01/23 01:31:09;;;;;;;21.02;4.35;;;6.30;99.90;;;;;;5062559;28;20597;-67
2024/01/23 01:33:34;;;;;;;26.98;4.68;;;6.20;99.90;;;;;;5032178;28;20049;-67
2024/01/23 01:36:00;;;;;;;23.77;4.50;;;6.20;99.90;;;;;;5032033;28;20071;-67
2024/01/23 01:38:26;;;;;;;20.73;4.28;;;6.20;99.90;;;;;;5030775;28;20033;-67
2024/01/23 01:40:51;;;;;;;20.42;3.80;;;6.20;99.90;;;;;;5030686;28;20395;-70
2024/01/23 01:43:29;;;;;;;22.88;5.15;;;6.10;99.90;;;;;;5032914;28;20037;-68
2024/01/23 01:46:00;;;;;;;20.83;4.70;;;6.10;99.90;;;;;;5031037;28;20049;-68
2024/01/23 01:48:26;;;;;;;22.70;5.55;;;6.10;99.90;;;;;;5031874;28;20422;-67
2024/01/23 01:50:52;;;;;;;23.88;4.60;;;6.10;99.90;;;;;;5028290;28;20045;-70
2024/01/23 01:53:18;;;;;;;23.58;4.88;;;6.10;99.90;;;;;;5031932;28;20045;-68
2024/01/23 01:55:44;;;;;;;27.73;5.32;;;6.10;99.90;;;;;;5032001;28;20056;-68
2024/01/23 01:58:12;;;;;;;21.48;4.53;;;6.00;99.90;;;;;;5029995;28;20095;-68
2024/01/23 02:00:38;;;;;;;21.48;4.95;;;6.10;99.90;;;;;;5031052;28;20053;-67
2024/01/23 02:03:04;;;;;;;23.33;4.07;;;6.00;99.90;;;;;;5029364;28;20091;-68
2024/01/23 02:05:30;;;;;;;26.90;4.60;;;6.00;99.90;;;;;;5030743;28;20037;-68
2024/01/23 02:07:55;;;;;;;27.75;4.78;;;6.00;99.90;;;;;;5030408;28;20041;-69
2024/01/23 02:10:22;;;;;;;18.83;4.65;;;6.00;99.90;;;;;;5031775;28;20073;-68
2024/01/23 02:12:48;;;;;;;25.42;4.75;;;6.00;99.90;;;;;;5029275;28;20045;-67
2024/01/23 02:15:14;;;;;;;18.65;5.38;;;5.90;99.90;;;;;;5063716;28;20609;-67
2024/01/23 02:17:39;;;;;;;24.80;4.47;;;6.00;99.90;;;;;;5030374;28;20087;-69
2024/01/23 02:20:06;;;;;;;23.42;4.03;;;5.90;99.90;;;;;;5031253;28;20108;-68
2024/01/23 02:22:31;;;;;;;29.00;5.70;;;5.90;99.90;;;;;;5030214;28;20037;-67
2024/01/23 02:24:57;;;;;;;28.27;4.78;;;5.90;99.90;;;;;;5026681;28;20494;-70
2024/01/23 02:27:22;;;;;;;23.02;4.90;;;5.90;99.90;;;;;;5031576;28;20475;-67
2024/01/23 02:29:48;;;;;;;23.55;5.43;;;5.90;99.90;;;;;;5030824;28;20124;-68
2024/01/23 02:32:14;;;;;;;33.88;5.20;;;5.90;99.90;;;;;;5029805;28;20077;-67
2024/01/23 02:34:40;;;;;;;25.88;5.53;;;5.80;99.90;;;;;;5029140;28;20356;-68
2024/01/23 02:37:06;;;;;;;23.85;5.20;;;5.90;99.90;;;;;;5031229;28;20052;-68
2024/01/23 02:39:31;;;;;;;22.33;5.18;;;6.00;99.90;;;;;;5031834;28;20042;-68
2024/01/23 02:41:57;;;;;;;24.33;5.18;;;6.00;99.90;;;;;;5031304;28;20033;-69
2024/01/23 02:44:23;;;;;;;31.50;5.45;;;6.00;99.90;;;;;;5029499;28;20044;-68
2024/01/23 02:46:48;;;;;;;29.50;5.78;;;6.00;99.90;;;;;;5030545;28;20467;-67
2024/01/23 02:49:14;;;;;;;27.23;5.55;;;6.10;99.90;;;;;;5032808;28;20120;-68
2024/01/23 02:51:40;;;;;;;28.27;5.05;;;6.10;99.90;;;;;;5034270;28;20049;-67
2024/01/23 02:54:05;;;;;;;21.65;5.03;;;6.20;99.90;;;;;;5014954;28;20053;-68
2024/01/23 02:56:31;;;;;;;24.23;5.35;;;6.20;99.90;;;;;;5034349;28;20425;-67
2024/01/23 02:58:57;;;;;;;27.35;5.53;;;6.20;99.90;;;;;;5034342;28;20090;-67
2024/01/23 03:01:22;;;;;;;24.02;4.95;;;6.20;99.90;;;;;;5033806;28;20421;-67
2024/01/23 03:03:48;;;;;;;23.23;5.40;;;6.20;99.90;;;;;;5035682;28;20118;-68
2024/01/23 03:06:13;;;;;;;26.50;5.20;;;6.30;99.90;;;;;;5029617;28;20087;-68
2024/01/23 03:08:39;;;;;;;24.70;4.93;;;6.30;99.90;;;;;;5034046;28;20041;-68
2024/01/23 03:11:05;;;;;;;24.75;4.97;;;6.30;99.90;;;;;;5034718;28;20377;-68
2024/01/23 03:13:30;;;;;;;22.58;5.05;;;6.20;99.90;;;;;;5059121;28;20037;-68
2024/01/23 03:15:56;;;;;;;20.27;4.03;;;6.30;99.90;;;;;;5017072;28;20053;-68
2024/01/23 03:18:22;;;;;;;29.70;5.35;;;6.30;99.90;;;;;;5053903;28;20060;-68
2024/01/23 03:20:48;;;;;;;28.23;5.25;;;6.20;99.90;;;;;;5035024;28;20038;-68
2024/01/23 03:23:13;;;;;;;22.17;5.38;;;6.30;99.90;;;;;;5033912;28;20037;-68
2024/01/23 03:25:39;;;;;;;24.90;5.65;;;6.30;99.90;;;;;;5033556;28;20374;-68
2024/01/23 03:28:05;;;;;;;27.35;4.75;;;6.30;99.90;;;;;;5033693;28;20041;-70
2024/01/23 03:30:31;;;;;;;21.10;4.97;;;6.30;99.90;;;;;;5034581;28;20045;-67
2024/01/23 03:32:58;;;;;;;29.73;5.50;;;6.30;99.90;;;;;;5035200;28;20052;-68
2024/01/23 03:35:24;;;;;;;30.55;4.90;;;6.30;99.90;;;;;;5034259;28;20052;-68
2024/01/23 03:37:51;;;;;;;30.25;4.93;;;6.30;99.90;;;;;;5033026;28;20120;-68
2024/01/23 03:40:17;;;;;;;29.52;5.45;;;6.40;99.90;;;;;;5034650;28;20383;-68
2024/01/23 03:42:43;;;;;;;24.08;4.93;;;6.40;99.90;;;;;;5066868;28;20037;-68
2024/01/23 03:45:09;;;;;;;27.30;5.43;;;6.40;99.90;;;;;;5033996;28;20051;-70
2024/01/23 03:47:35;;;;;;;27.25;5.10;;;6.40;99.90;;;;;;5033138;28;20034;-68
2024/01/23 03:50:01;;;;;;;25.05;5.10;;;6.40;99.90;;;;;;5033879;28;20368;-68
2024/01/23 03:52:28;;;;;;;25.80;6.00;;;6.40;99.90;;;;;;5032397;28;20463;-67
2024/01/23 03:54:53;;;;;;;19.58;5.60;;;6.50;99.90;;;;;;5034467;28;20038;-68
2024/01/23 03:57:19;;;;;;;23.60;5.72;;;6.40;99.90;;;;;;5030624;28;20473;-68
2024/01/23 03:59:45;;;;;;;31.85;5.22;;;6.50;99.90;;;;;;5065417;28;20050;-68
2024/01/23 04:02:11;;;;;;;32.50;7.00;;;6.50;99.90;;;;;;5032123;28;20141;-69
2024/01/23 04:04:38;;;;;;;35.58;5.30;;;6.50;99.90;;;;;;5033213;28;20044;-68
2024/01/23 04:07:04;;;;;;;33.90;6.10;;;6.50;99.90;;;;;;5034312;28;20044;-67
2024/01/23 04:09:30;;;;;;;31.35;6.78;;;6.50;99.90;;;;;;5029514;28;20608;-68
2024/01/23 04:11:56;;;;;;;26.35;5.65;;;6.60;99.90;;;;;;5062999;28;20044;-68
2024/01/23 04:14:22;;;;;;;39.05;6.47;;;6.60;99.90;;;;;;5032577;28;20053;-68
2024/01/23 04:16:48;;;;;;;24.23;5.20;;;6.60;99.90;;;;;;5033241;28;20091;-68
2024/01/23 04:19:13;;;;;;;23.40;5.13;;;6.70;99.90;;;;;;5031809;28;20065;-69
2024/01/23 04:21:39;;;;;;;26.10;5.03;;;6.70;99.90;;;;;;5033302;28;20037;-70
2024/01/23 04:24:05;;;;;;;32.30;7.03;;;6.70;99.90;;;;;;5033203;28;20037;-68
2024/01/23 04:26:31;;;;;;;26.90;5.75;;;6.70;99.90;;;;;;5033847;28;20046;-68
2024/01/23 04:28:57;;;;;;;29.02;6.20;;;6.70;99.90;;;;;;5030865;28;20356;-68
2024/01/23 04:31:23;;;;;;;30.45;7.10;;;6.80;99.90;;;;;;5033389;28;20063;-68
2024/01/23 04:33:49;;;;;;;30.17;6.15;;;6.80;99.90;;;;;;5032358;28;20530;-68
2024/01/23 04:36:15;;;;;;;30.38;6.13;;;6.80;99.90;;;;;;5033509;28;20052;-70
2024/01/23 04:38:42;;;;;;;29.88;5.55;;;6.80;99.90;;;;;;5032346;28;20414;-68
2024/01/23 04:41:07;;;;;;;27.65;6.20;;;6.80;99.90;;;;;;5032862;28;20041;-68
2024/01/23 04:43:33;;;;;;;30.45;6.53;;;6.80;99.90;;;;;;5032068;28;20064;-68
2024/01/23 04:45:59;;;;;;;40.38;6.97;;;6.80;99.90;;;;;;5032255;28;20111;-68
2024/01/23 04:48:25;;;;;;;25.48;6.03;;;6.80;99.90;;;;;;5033069;28;20038;-68
2024/01/23 04:50:51;;;;;;;31.30;6.10;;;6.90;99.90;;;;;;5030557;28;20095;-68
2024/01/23 04:53:17;;;;;;;24.17;5.50;;;6.90;99.90;;;;;;5031839;28;20112;-70
2024/01/23 04:55:42;;;;;;;28.33;5.53;;;6.90;99.90;;;;;;5032167;28;20038;-68
2024/01/23 04:58:08;;;;;;;30.00;6.90;;;6.90;99.90;;;;;;5032197;28;20048;-67
2024/01/23 05:00:34;;;;;;;35.10;7.40;;;6.90;99.90;;;;;;5032087;28;20136;-68
2024/01/23 05:03:01;;;;;;;29.00;6.30;;;6.90;99.90;;;;;;5027342;28;20084;-68
2024/01/23 05:05:28;;;;;;;31.75;5.72;;;6.90;99.90;;;;;;5023583;28;20494;-68
2024/01/23 05:07:53;;;;;;;25.85;5.78;;;6.90;99.90;;;;;;5065448;28;20041;-68
2024/01/23 05:10:19;;;;;;;27.13;5.13;;;6.90;99.90;;;;;;5030974;28;20083;-70
2024/01/23 05:12:45;;;;;;;34.53;7.05;;;6.90;99.90;;;;;;5018570;28;20045;-69
2024/01/23 05:15:11;;;;;;;35.45;5.95;;;6.90;99.90;;;;;;5032986;28;20047;-68
2024/01/23 05:17:37;;;;;;;38.33;6.63;;;6.90;99.90;;;;;;5032447;28;20044;-68
2024/01/23 05:20:04;;;;;;;30.27;6.22;;;6.90;99.90;;;;;;5032990;28;20037;-68
2024/01/23 05:22:30;;;;;;;27.60;5.57;;;6.90;99.90;;;;;;5030524;28;20041;-68
2024/01/23 05:24:56;;;;;;;27.02;5.65;;;6.90;99.90;;;;;;5032641;28;20044;-68
2024/01/23 05:27:22;;;;;;;38.17;7.15;;;6.90;99.90;;;;;;5032642;28;20041;-70
2024/01/23 05:29:48;;;;;;;34.08;6.70;;;6.90;99.90;;;;;;5031467;28;20411;-68
2024/01/23 05:32:13;;;;;;;33.65;5.78;;;6.80;99.90;;;;;;5047376;28;20467;-68
2024/01/23 05:34:40;;;;;;;31.35;5.85;;;6.80;99.90;;;;;;5020704;28;20041;-68
2024/01/23 05:37:05;;;;;;;38.35;7.32;;;6.70;99.90;;;;;;5031375;28;20364;-68
2024/01/23 05:39:37;;;;;;;32.42;7.43;;;6.70;99.90;;;;;;5032026;28;20045;-68
2024/01/23 05:42:03;;;;;;;25.92;6.30;;;6.70;99.90;;;;;;5031884;28;20037;-68
2024/01/23 05:44:29;;;;;;;33.40;6.72;;;6.60;99.90;;;;;;5029096;28;20459;-68
2024/01/23 05:46:54;;;;;;;34.30;6.68;;;6.60;99.90;;;;;;5032252;28;20052;-68
2024/01/23 05:49:20;;;;;;;27.00;6.10;;;6.60;99.90;;;;;;5030892;28;20041;-67
2024/01/23 05:51:46;;;;;;;33.60;7.60;;;6.50;99.90;;;;;;5031893;28;20064;-68
2024/01/23 05:54:11;;;;;;;34.47;7.40;;;6.50;99.90;;;;;;5029226;28;20120;-68
2024/01/23 05:56:37;;;;;;;31.52;6.50;;;6.50;99.90;;;;;;5029646;28;20045;-68
2024/01/23 05:59:03;;;;;;;28.58;7.05;;;6.50;99.90;;;;;;5029333;28;20487;-68
2024/01/23 06:01:31;;;;;;;32.95;7.20;;;6.50;99.90;;;;;;5045003;28;20120;-68
2024/01/23 06:03:57;;;;;;;38.47;7.18;;;6.50;99.90;;;;;;5025938;28;20060;-67
2024/01/23 06:06:22;;;;;;;31.48;6.10;;;6.40;99.90;;;;;;5026004;28;20041;-68
2024/01/23 06:08:48;;;;;;;28.33;6.70;;;6.40;99.90;;;;;;5027070;28;20132;-68
2024/01/23 06:11:14;;;;;;;34.85;7.38;;;6.40;99.90;;;;;;5024757;28;20042;-68
2024/01/23 06:13:39;;;;;;;31.13;5.65;;;6.30;99.90;;;;;;5012591;28;20045;-68
2024/01/23 06:16:06;;;;;;;30.23;7.15;;;6.30;99.90;;;;;;5025233;28;20100;-68
2024/01/23 06:18:31;;;;;;;35.20;7.88;;;6.30;99.90;;;;;;5026906;28;20445;-68
2024/01/23 06:20:57;;;;;;;46.95;7.82;;;6.30;99.90;;;;;;5030608;28;20041;-68
2024/01/23 06:23:24;;;;;;;30.58;7.00;;;6.30;99.90;;;;;;5029800;28;20052;-68
2024/01/23 06:25:50;;;;;;;31.42;6.22;;;6.20;99.90;;;;;;5028361;28;20046;-68
2024/01/23 06:28:16;;;;;;;36.55;6.93;;;6.20;99.90;;;;;;5031668;28;20049;-68
2024/01/23 06:30:42;;;;;;;35.65;6.88;;;6.20;99.90;;;;;;5046747;28;20040;-68
2024/01/23 06:33:08;;;;;;;37.22;7.68;;;6.10;99.90;;;;;;5055644;28;20064;-67
2024/01/23 06:35:34;;;;;;;38.80;7.85;;;6.10;99.90;;;;;;5022485;28;20062;-67
2024/01/23 06:38:00;;;;;;;40.60;7.35;;;6.10;99.90;;;;;;5022189;28;20040;-68
2024/01/23 06:40:25;;;;;;;43.88;8.02;;;6.10;99.90;;;;;;5024717;28;20379;-68
2024/01/23 06:42:51;;;;;;;43.28;8.00;;;6.10;99.90;;;;;;5014258;28;20590;-67
2024/01/23 06:45:16;;;;;;;40.75;6.80;;;6.00;99.90;;;;;;5012410;28;20041;-67
2024/01/23 06:47:42;;;;;;;37.92;7.75;;;6.10;99.90;;;;;;5021600;28;20140;-68
2024/01/23 06:50:08;;;;;;;45.55;7.57;;;6.00;99.90;;;;;;5027282;28;20045;-68
2024/01/23 06:52:34;;;;;;;35.38;7.47;;;6.00;99.90;;;;;;5010046;28;20088;-70
2024/01/23 06:55:00;;;;;;;39.25;8.05;;;6.00;99.90;;;;;;5043717;28;20544;-67
2024/01/23 06:57:26;;;;;;;42.50;7.93;;;6.00;99.90;;;;;;5012444;28;20472;-68
2024/01/23 06:59:51;;;;;;;31.35;6.97;;;6.00;99.90;;;;;;5026665;28;20060;-68
2024/01/23 07:02:17;;;;;;;43.20;8.52;;;5.90;99.90;;;;;;5024622;28;20057;-67
2024/01/23 07:04:43;;;;;;;37.55;8.10;;;5.90;99.90;;;;;;5018771;28;20065;-67
2024/01/23 07:07:09;;;;;;;37.05;7.80;;;5.90;99.90;;;;;;5053515;28;20743;-67
2024/01/23 07:09:35;;;;;;;42.90;7.82;;;5.90;99.90;;;;;;5017330;28;20120;-70
2024/01/23 07:12:00;;;;;;;41.58;7.40;;;5.90;99.90;;;;;;5028110;28;20383;-68
2024/01/23 07:14:26;;;;;;;40.85;7.90;;;5.80;99.90;;;;;;5030690;28;20117;-69
2024/01/23 07:16:52;;;;;;;33.40;6.45;;;5.80;99.90;;;;;;5018170;28;20479;-68
2024/01/23 07:19:18;;;;;;;37.00;7.07;;;5.80;99.90;;;;;;5024242;28;20038;-68
2024/01/23 07:21:43;;;;;;;36.17;7.72;;;5.80;99.90;;;;;;5030520;28;20041;-69
2024/01/23 07:24:10;;;;;;;40.35;8.57;;;5.80;99.90;;;;;;5031364;28;20037;-69
2024/01/23 07:26:36;;;;;;;46.40;8.13;;;5.70;99.90;;;;;;5030943;28;20387;-69
2024/01/23 07:29:04;;;;;;;37.15;8.77;;;5.70;99.90;;;;;;5029813;28;20041;-68
2024/01/23 07:31:30;;;;;;;45.90;7.60;;;5.70;99.90;;;;;;5030755;28;20098;-70
2024/01/23 07:33:56;;;;;;;39.20;8.52;;;5.70;99.90;;;;;;5030414;28;20474;-70
2024/01/23 07:36:22;;;;;;;36.88;6.78;;;5.70;99.90;;;;;;5034730;28;20045;-69
2024/01/23 07:38:47;;;;;;;41.00;7.57;;;5.70;99.90;;;;;;5032979;28;20060;-70
2024/01/23 07:41:13;;;;;;;37.30;7.18;;;5.70;99.90;;;;;;5027871;28;20124;-70
2024/01/23 07:43:39;;;;;;;38.85;7.50;;;5.70;99.90;;;;;;5028513;28;20049;-69
2024/01/23 07:46:05;;;;;;;45.50;8.63;;;5.70;99.90;;;;;;5037649;28;20041;-69
2024/01/23 07:48:30;;;;;;;40.25;8.30;;;5.70;99.90;;;;;;5043308;28;20037;-71
2024/01/23 07:50:56;;;;;;;42.08;8.38;;;5.60;99.90;;;;;;5030263;28;20049;-70
2024/01/23 07:53:22;;;;;;;42.55;7.80;;;5.60;99.90;;;;;;5029856;28;20053;-69
2024/01/23 07:55:48;;;;;;;41.33;8.98;;;5.60;99.90;;;;;;5028969;28;20057;-70
2024/01/23 07:58:14;;;;;;;42.60;7.80;;;5.60;99.90;;;;;;5015255;28;20037;-69
2024/01/23 08:00:43;;;;;;;41.10;7.78;;;5.60;99.90;;;;;;5023735;28;20093;-69
2024/01/23 08:03:09;;;;;;;37.53;7.20;;;5.70;99.90;;;;;;5028003;28;20064;-70
2024/01/23 08:05:35;;;;;;;41.90;7.60;;;5.70;99.90;;;;;;5015068;28;20041;-69
2024/01/23 08:08:01;;;;;;;48.05;7.65;;;5.70;99.90;;;;;;5028624;28;20045;-70
2024/01/23 08:10:27;;;;;;;36.92;8.27;;;5.70;99.90;;;;;;5064751;28;20371;-70
2024/01/23 08:12:53;;;;;;;35.95;7.95;;;5.70;99.90;;;;;;5030490;28;20045;-70
2024/01/23 08:15:19;;;;;;;36.25;6.50;;;5.80;99.90;;;;;;5033639;28;20499;-72
2024/01/23 08:17:45;;;;;;;40.80;6.50;;;5.80;99.90;;;;;;5032726;28;20041;-74
2024/01/23 08:20:11;;;;;;;37.20;8.02;;;5.80;99.90;;;;;;5035647;28;20099;-72
2024/01/23 08:22:38;;;;;;;38.75;8.75;;;5.80;99.90;;;;;;5036011;28;20075;-72
2024/01/23 08:25:04;;;;;;;39.80;8.02;;;5.90;99.90;;;;;;5065562;28;20050;-73
2024/01/23 08:27:30;;;;;;;39.03;7.35;;;5.80;99.90;;;;;;5048823;28;20060;-72
2024/01/23 08:29:56;;;;;;;39.22;8.20;;;5.90;99.90;;;;;;5032432;28;20387;-72
2024/01/23 08:32:21;;;;;;;38.65;8.55;;;5.90;99.90;;;;;;5061086;28;20033;-73
2024/01/23 08:34:47;;;;;;;38.70;7.40;;;6.00;99.90;;;;;;5046164;28;20472;-73
2024/01/23 08:37:14;;;;;;;37.28;7.95;;;6.00;99.90;;;;;;5027594;28;20037;-71
2024/01/23 08:39:40;;;;;;;38.72;9.52;;;6.00;99.90;;;;;;5037808;28;20080;-72
2024/01/23 08:42:06;;;;;;;40.35;7.43;;;6.00;99.90;;;;;;5029207;28;20049;-72
2024/01/23 08:44:31;;;;;;;38.65;8.35;;;6.00;99.90;;;;;;5029410;28;20041;-72
2024/01/23 08:46:57;;;;;;;34.72;6.47;;;6.10;99.90;;;;;;5028488;28;20077;-72
2024/01/23 08:49:23;;;;;;;49.25;9.00;;;6.10;99.90;;;;;;5030878;28;20044;-72
2024/01/23 08:51:48;;;;;;;36.28;7.65;;;6.10;99.90;;;;;;5032133;28;20054;-72
2024/01/23 08:54:18;;;;;;;41.92;8.40;;;6.10;99.90;;;;;;5017095;28;20080;-73
2024/01/23 08:56:46;;;;;;;34.65;6.97;;;6.20;99.90;;;;;;5054076;28;20085;-73
2024/01/23 08:59:13;;;;;;;30.75;7.30;;;6.20;99.90;;;;;;5014564;28;20073;-73
2024/01/23 09:01:38;;;;;;;41.55;7.22;;;6.20;99.90;;;;;;5021228;28;20053;-73
2024/01/23 09:04:04;;;;;;;33.20;6.85;;;6.20;99.90;;;;;;5018145;28;20092;-73
2024/01/23 09:06:30;;;;;;;48.78;8.10;;;6.20;99.90;;;;;;5016131;28;20053;-73
2024/01/23 09:08:56;;;;;;;34.92;7.10;;;6.30;99.90;;;;;;5018039;28;20045;-74
2024/01/23 09:11:21;;;;;;;37.95;7.53;;;6.30;99.90;;;;;;5064617;28;20046;-73
2024/01/23 09:13:47;;;;;;;30.02;6.30;;;6.30;99.90;;;;;;5031328;28;20045;-73
2024/01/23 09:16:13;;;;;;;37.53;6.60;;;6.30;99.90;;;;;;5045104;28;20077;-73
2024/01/23 09:18:40;;;;;;;38.50;7.63;;;6.30;99.90;;;;;;5032070;28;20048;-73
2024/01/23 09:21:08;;;;;;;40.95;7.03;;;6.40;99.90;;;;;;5031327;28;20048;-73
2024/01/23 09:23:37;;;;;;;40.40;7.15;;;6.40;99.90;;;;;;5031992;28;20045;-73
2024/01/23 09:26:03;;;;;;;31.88;6.10;;;6.40;99.90;;;;;;5030313;28;20045;-73
2024/01/23 09:28:29;;;;;;;37.92;6.47;;;6.40;99.90;;;;;;5031786;28;20099;-73
2024/01/23 09:30:55;;;;;;;39.88;7.38;;;6.50;99.90;;;;;;5031522;28;20037;-73
2024/01/23 09:33:20;;;;;;;41.33;8.13;;;6.50;99.90;;;;;;5031158;28;20128;-71
2024/01/23 09:35:46;;;;;;;29.52;6.45;;;6.50;99.90;;;;;;5029260;28;20041;-72
2024/01/23 09:38:12;;;;;;;47.80;7.65;;;6.60;99.90;;;;;;5024297;28;20044;-73
2024/01/23 09:40:39;;;;;;;36.70;6.72;;;6.60;99.90;;;;;;5031262;28;20120;-72
2024/01/23 09:43:09;;;;;;;40.40;7.78;;;6.60;99.90;;;;;;5063432;28;20055;-73
2024/01/23 09:45:38;;;;;;;40.33;7.30;;;6.70;99.90;;;;;;5029666;28;20136;-73
2024/01/23 09:48:04;;;;;;;35.47;6.88;;;6.70;99.90;;;;;;5013072;28;20391;-73
2024/01/23 09:50:31;;;;;;;34.00;7.75;;;6.70;99.90;;;;;;5041013;28;20068;-74
2024/01/23 09:52:59;;;;;;;37.20;7.22;;;6.80;99.90;;;;;;5052793;28;20057;-72
2024/01/23 09:55:25;;;;;;;35.85;7.30;;;6.80;99.90;;;;;;5026025;28;20479;-72
2024/01/23 09:57:51;;;;;;;36.50;6.93;;;6.90;99.90;;;;;;5021520;28;20398;-72
2024/01/23 10:00:17;;;;;;;35.45;6.93;;;6.90;99.90;;;;;;5022221;28;20045;-73
2024/01/23 10:02:44;;;;;;;34.53;6.88;;;6.90;99.90;;;;;;5042199;28;20046;-73
2024/01/23 10:05:11;;;;;;;33.90;6.63;;;7.00;99.90;;;;;;5018268;28;20125;-73
2024/01/23 10:07:38;;;;;;;28.75;6.45;;;7.00;99.90;;;;;;5025997;28;20049;-73
2024/01/23 10:10:15;;;;;;;46.22;7.90;;;7.00;99.90;;;;;;5025398;28;20042;-73
2024/01/23 10:12:50;;;;;;;41.17;6.70;;;7.00;99.90;;;;;;5026083;28;20041;-73
2024/01/23 10:15:18;;;;;;;33.22;6.28;;;7.10;99.90;;;;;;5037143;28;20084;-73
2024/01/23 10:17:45;;;;;;;31.45;6.63;;;7.10;99.90;;;;;;5027062;28;20041;-73
2024/01/23 10:20:12;;;;;;;35.35;5.28;;;7.20;99.90;;;;;;5043024;28;20041;-73
2024/01/23 10:22:38;;;;;;;39.42;7.97;;;7.30;99.90;;;;;;5046592;28;20053;-73
2024/01/23 10:25:13;;;;;;;27.42;5.68;;;7.30;99.90;;;;;;5013876;28;20049;-73
2024/01/23 10:27:39;;;;;;;26.67;6.10;;;7.40;99.90;;;;;;5030230;28;20494;-73
2024/01/23 10:30:06;;;;;;;29.85;7.07;;;7.40;99.90;;;;;;5021720;28;20037;-73
2024/01/23 10:32:32;;;;;;;29.05;5.68;;;7.50;99.90;;;;;;5026707;28;20071;-72
2024/01/23 10:34:57;;;;;;;36.05;6.70;;;7.50;99.90;;;;;;5025390;28;20471;-71
2024/01/23 10:37:23;;;;;;;33.55;6.20;;;7.80;99.90;;;;;;5025088;28;20231;-72
2024/01/23 10:39:51;;;;;;;29.00;6.25;;;7.60;99.90;;;;;;5029412;28;20081;-70
2024/01/23 10:42:20;;;;;;;30.38;6.35;;;7.70;99.90;;;;;;5012405;28;20056;-70
2024/01/23 10:44:50;;;;;;;35.83;6.18;;;7.70;99.90;;;;;;5023322;28;20340;-69
2024/01/23 10:47:16;;;;;;;38.20;5.95;;;7.80;99.90;;;;;;5024288;28;20044;-70
2024/01/23 10:49:43;;;;;;;27.25;5.93;;;7.80;99.90;;;;;;5049682;28;20060;-70
2024/01/23 10:52:14;;;;;;;38.13;6.75;;;7.90;99.90;;;;;;5023172;28;20136;-71
2024/01/23 10:54:43;;;;;;;28.92;7.00;;;7.90;99.90;;;;;;5021529;28;20037;-71
2024/01/23 10:57:21;;;;;;;37.75;6.93;;;8.00;99.90;;;;;;5025950;28;20073;-71
2024/01/23 10:59:47;;;;;;;34.25;5.88;;;8.00;99.90;;;;;;5024733;28;20038;-69
2024/01/23 11:02:30;;;;;;;32.50;6.32;;;8.00;99.90;;;;;;5025336;28;20483;-69
2024/01/23 11:04:56;;;;;;;31.35;6.32;;;8.00;99.90;;;;;;5021428;28;20096;-70
2024/01/23 11:07:37;;;;;;;24.65;5.72;;;8.00;99.90;;;;;;5017082;28;20054;-70
2024/01/23 11:10:22;;;;;;;33.00;6.53;;;8.10;99.90;;;;;;5022908;28;20044;-71
2024/01/23 11:13:03;;;;;;;25.02;6.18;;;8.10;99.90;;;;;;5023374;28;20340;-70
2024/01/23 11:15:29;;;;;;;33.08;6.78;;;8.10;99.90;;;;;;5026216;28;20060;-70
2024/01/23 11:18:20;;;;;;;35.20;6.80;;;8.10;99.90;;;;;;5029988;28;20172;-70
2024/01/23 11:21:03;;;;;;;33.45;5.72;;;8.10;99.90;;;;;;5021310;28;20490;-71
2024/01/23 11:23:29;;;;;;;34.88;6.25;;;8.10;99.90;;;;;;5030068;28;20569;-71
2024/01/23 11:26:00;;;;;;;35.58;7.32;;;8.10;99.90;;;;;;5020495;28;20042;-71
2024/01/23 11:28:27;;;;;;;36.05;7.00;;;8.10;99.90;;;;;;5028948;28;20127;-70
2024/01/23 11:31:11;;;;;;;32.92;6.18;;;8.10;99.90;;;;;;5017911;28;20375;-70
2024/01/23 11:33:37;;;;;;;34.33;6.05;;;8.10;99.90;;;;;;5023471;28;20095;-70
2024/01/23 11:36:21;;;;;;;28.15;5.82;;;8.20;99.90;;;;;;5024988;28;20079;-71
2024/01/23 11:38:52;;;;;;;28.38;6.00;;;8.20;99.90;;;;;;5022752;28;20049;-70
2024/01/23 11:41:22;;;;;;;22.45;4.47;;;8.20;99.90;;;;;;5019447;28;20386;-70
2024/01/23 11:43:54;;;;;;;38.03;6.15;;;8.20;99.90;;;;;;5022846;28;20037;-70
2024/01/23 11:46:25;;;;;;;32.08;5.45;;;8.20;99.90;;;;;;5018618;28;20050;-70
2024/01/23 11:48:53;;;;;;;27.60;6.95;;;8.20;99.90;;;;;;5065180;28;20048;-70
2024/01/23 11:51:19;;;;;;;25.23;5.57;;;8.20;99.90;;;;;;5024767;28;20041;-69
2024/01/23 11:53:45;;;;;;;32.90;4.60;;;8.20;99.90;;;;;;5015903;28;20064;-70
2024/01/23 11:56:12;;;;;;;32.38;6.20;;;8.20;99.90;;;;;;5018446;28;20073;-70
2024/01/23 11:58:38;;;;;;;33.20;5.63;;;8.20;99.90;;;;;;5029670;28;20051;-70
2024/01/23 12:01:05;;;;;;;29.95;6.00;;;8.30;99.90;;;;;;5026755;28;20112;-70
2024/01/23 12:03:31;;;;;;;30.73;6.18;;;8.30;99.90;;;;;;5054946;28;20087;-70
2024/01/23 12:05:57;;;;;;;21.88;4.80;;;8.30;99.90;;;;;;5030052;28;20352;-70
2024/01/23 12:08:23;;;;;;;29.77;5.72;;;8.30;99.90;;;;;;5019826;28;20040;-70
2024/01/23 12:10:51;;;;;;;35.63;6.15;;;8.30;99.90;;;;;;5035179;28;20095;-70
2024/01/23 12:13:17;;;;;;;32.65;5.43;;;8.20;99.90;;;;;;5019993;28;20049;-70
2024/01/23 12:15:43;;;;;;;24.27;4.90;;;8.30;99.90;;;;;;5019387;28;20037;-70
2024/01/23 12:18:20;;;;;;;30.48;5.43;;;8.30;99.90;;;;;;5016902;28;20044;-70
2024/01/23 12:20:50;;;;;;;23.42;4.85;;;8.30;99.90;;;;;;5035639;28;20080;-70
2024/01/23 12:23:17;;;;;;;26.98;5.15;;;8.40;99.90;;;;;;5036905;28;20367;-71
2024/01/23 12:25:43;;;;;;;29.60;6.03;;;8.40;99.90;;;;;;5031481;28;20168;-70
2024/01/23 12:28:09;;;;;;;23.92;4.93;;;8.40;99.90;;;;;;5027041;28;20049;-71
2024/01/23 12:30:35;;;;;;;31.25;5.82;;;8.40;99.90;;;;;;5062815;28;20037;-71
2024/01/23 12:33:02;;;;;;;29.60;6.28;;;8.40;99.90;;;;;;5032703;28;20076;-71
2024/01/23 12:35:28;;;;;;;21.63;4.72;;;8.40;99.90;;;;;;5039053;28;20054;-71
2024/01/23 12:37:55;;;;;;;26.50;5.68;;;8.40;99.90;;;;;;5032717;28;20045;-71
2024/01/23 12:40:22;;;;;;;22.02;4.05;;;8.40;99.90;;;;;;5022967;28;20036;-71
2024/01/23 12:42:48;;;;;;;24.05;5.35;;;8.40;99.90;;;;;;5027550;28;20045;-71
2024/01/23 12:45:15;;;;;;;25.17;5.18;;;8.50;99.90;;;;;;5025899;28;20426;-72